Manasota, Florida
Current Conditions -  °F | °C
As of 7:15 PM on Tuesday 25 Nov 2014 (Local Time) from KVNC Reporting Station
Haze Haze  
Wind Chill: 73°   Ceiling: 6500
Heat Index: 73°   Visibility: 4mi
Dew Point: 73°   Wind: 17mph
Humidity: 100%   Direction: 170°S
Pressure: 29.9"   Gusts: 24mph
Location:  27.01°N, 82.4°W
Report Text: KVNC 260015Z AUTO 17015G21KT 4SM BR SCT003 BKN065 OVC085 23/23 A2990 RMK AO2 TSNO
Loading
Personal Weather Stations






























Interactive Weather Map New forecast layout! Learn more

10-Day Weather Forecast

Advertisements
Track Severe Weather on mobile